createdAt,value
2023-01-12T00:02:36.833Z,5.90
2023-01-12T00:07:39.008Z,4.97
2023-01-12T00:12:41.143Z,5.07
2023-01-12T00:17:43.195Z,4.85
2023-01-12T00:22:49.953Z,9.25
2023-01-12T00:27:52.023Z,5.25
2023-01-12T00:38:19.730Z,5.65
2023-01-12T00:43:40.158Z,5.78
2023-01-12T00:48:42.366Z,6.65
2023-01-12T00:53:44.428Z,6.40
2023-01-12T00:58:47.467Z,6.55
2023-01-12T01:03:49.625Z,5.82
2023-01-12T01:08:52.032Z,5.60
2023-01-12T01:13:54.941Z,5.72
2023-01-12T01:18:58.565Z,5.65
2023-01-12T01:24:01.064Z,5.18
2023-01-12T01:29:03.229Z,4.07
2023-01-12T01:34:05.358Z,4.47
2023-01-12T01:39:07.517Z,5.05
2023-01-12T01:44:31.279Z,4.40
2023-01-12T01:49:51.923Z,4.15
2023-01-12T01:54:59.799Z,4.35
2023-01-12T02:00:06.327Z,4.20
2023-01-12T02:05:09.601Z,5.43
2023-01-12T02:10:11.913Z,5.53
2023-01-12T02:15:52.471Z,5.07
2023-01-12T02:21:21.146Z,4.03
2023-01-12T02:26:44.701Z,5.45
2023-01-12T02:32:29.243Z,5.28
2023-01-12T02:38:02.219Z,5.03
2023-01-12T02:43:40.520Z,4.50
2023-01-12T02:49:07.897Z,3.63
2023-01-12T02:54:17.436Z,4.70
2023-01-12T02:59:25.092Z,3.60
2023-01-12T03:04:28.558Z,5.00
2023-01-12T03:09:44.359Z,3.70
2023-01-12T03:14:49.446Z,4.80
2023-01-12T03:19:55.123Z,4.10
2023-01-12T03:25:02.603Z,4.20
2023-01-12T03:30:11.340Z,4.15
2023-01-12T03:35:14.219Z,3.95
2023-01-12T03:40:23.606Z,3.85
2023-01-12T03:45:45.920Z,3.70
2023-01-12T03:50:53.698Z,4.07
2023-01-12T03:56:00.031Z,4.05
2023-01-12T04:01:03.703Z,3.47
2023-01-12T04:06:06.184Z,5.25
2023-01-12T04:11:27.530Z,3.88
2023-01-12T04:16:29.802Z,3.53
2023-01-12T04:21:50.297Z,4.45
2023-01-12T04:26:52.619Z,4.90
2023-01-12T04:31:54.841Z,4.35
2023-01-12T04:36:57.096Z,5.25
2023-01-12T04:41:59.214Z,5.82
2023-01-12T04:47:01.272Z,5.88
2023-01-12T04:52:03.463Z,5.40
2023-01-12T04:57:05.519Z,5.60
2023-01-12T05:02:07.699Z,6.47
2023-01-12T05:07:09.797Z,7.30
2023-01-12T05:12:12.024Z,10.82
2023-01-12T05:17:14.067Z,8.18
2023-01-12T05:22:16.603Z,13.52
2023-01-12T05:27:19.000Z,9.20
2023-01-12T05:32:21.119Z,9.20
2023-01-12T05:37:23.200Z,7.47
2023-01-12T05:42:43.596Z,7.50
2023-01-12T05:47:45.863Z,7.75
2023-01-12T05:52:52.137Z,7.28
2023-01-12T05:57:54.319Z,7.90
2023-01-12T06:02:56.653Z,6.93
2023-01-12T06:07:59.654Z,7.88
2023-01-12T06:13:20.221Z,7.30
2023-01-12T06:18:23.259Z,8.32
2023-01-12T06:23:35.334Z,8.13
2023-01-12T06:28:39.654Z,7.35
2023-01-12T06:33:42.363Z,11.63
2023-01-12T06:38:44.510Z,11.75
2023-01-12T06:43:46.961Z,13.68
2023-01-12T06:48:49.125Z,17.25
2023-01-12T06:53:51.473Z,12.27
2023-01-12T06:58:53.582Z,11.70
2023-01-12T07:03:55.760Z,10.52
2023-01-12T07:08:57.887Z,9.27
2023-01-12T07:14:00.145Z,9.77
2023-01-12T07:19:02.393Z,11.10
2023-01-12T07:24:04.564Z,10.88
2023-01-12T07:29:06.770Z,9.90
2023-01-12T07:34:08.934Z,10.90
2023-01-12T07:39:13.256Z,9.63
2023-01-12T07:44:15.343Z,7.90
2023-01-12T07:49:17.507Z,8.38
2023-01-12T07:54:19.649Z,10.02
2023-01-12T07:59:21.714Z,10.98
2023-01-12T08:04:23.869Z,9.07
2023-01-12T08:09:26.630Z,6.80
2023-01-12T08:14:33.983Z,5.57
2023-01-12T08:19:45.800Z,7.72
2023-01-12T08:24:56.998Z,7.38
2023-01-12T08:30:00.435Z,8.77
2023-01-12T08:35:04.475Z,7.85
2023-01-12T08:40:07.867Z,6.90
2023-01-12T08:45:10.498Z,9.25
2023-01-12T08:50:12.837Z,8.68
2023-01-12T08:55:14.952Z,9.55
2023-01-12T09:00:17.865Z,9.85
2023-01-12T09:05:20.073Z,9.48
2023-01-12T09:10:22.159Z,9.68
2023-01-12T09:15:24.324Z,9.23
2023-01-12T09:20:26.525Z,7.10
2023-01-12T09:25:28.601Z,8.73
2023-01-12T09:30:30.737Z,10.95
2023-01-12T09:35:32.821Z,6.93
2023-01-12T09:40:35.930Z,6.93
2023-01-12T12:40:10.731Z,4.95
2023-01-12T12:45:21.787Z,4.35
2023-01-12T12:50:44.469Z,4.43
2023-01-12T12:55:49.216Z,4.75
2023-01-12T13:00:53.368Z,3.38
2023-01-12T13:06:16.667Z,4.18
2023-01-12T13:11:20.376Z,3.80
2023-01-12T13:16:22.493Z,4.55
2023-01-12T13:21:27.696Z,4.75
2023-01-12T13:26:35.724Z,4.60
2023-01-12T13:31:37.918Z,4.15
2023-01-12T13:36:40.139Z,4.28
2023-01-12T13:42:02.102Z,4.03
2023-01-12T13:47:16.917Z,4.30
2023-01-12T13:52:34.409Z,4.25
2023-01-12T13:57:36.621Z,5.32
2023-01-12T14:02:40.765Z,5.43
2023-01-12T14:07:58.931Z,4.82
2023-01-12T14:13:10.720Z,5.05
2023-01-12T14:18:28.218Z,4.68
2023-01-12T14:23:33.845Z,4.40
2023-01-12T14:28:37.153Z,5.05
2023-01-12T14:33:41.254Z,5.72
2023-01-12T14:38:44.752Z,5.40
2023-01-12T14:44:05.488Z,5.68
2023-01-12T14:49:31.161Z,6.72
2023-01-12T14:54:34.662Z,5.93
2023-01-12T14:59:44.005Z,6.53
2023-01-12T15:04:59.743Z,7.93
2023-01-12T15:10:24.627Z,7.75
2023-01-12T15:15:49.513Z,6.70
2023-01-12T15:21:10.062Z,6.80
2023-01-12T15:31:25.586Z,7.70
2023-01-12T15:36:28.080Z,11.82
2023-01-12T15:41:50.593Z,12.38
2023-01-12T15:46:53.506Z,11.20
2023-01-12T15:51:55.798Z,12.43
2023-01-12T15:56:59.936Z,15.35
2023-01-12T16:02:02.372Z,18.90
2023-01-12T16:07:05.612Z,18.50
2023-01-12T16:12:08.267Z,22.05
2023-01-12T16:17:10.616Z,18.70
2023-01-12T16:22:21.431Z,17.33
2023-01-12T16:27:26.745Z,20.92
2023-01-12T16:32:29.053Z,43.50
2023-01-12T16:37:33.694Z,24.80
2023-01-12T16:42:36.037Z,20.10
2023-01-12T16:47:38.800Z,18.35
2023-01-12T16:52:41.141Z,16.25
2023-01-12T16:57:43.515Z,16.25
2023-01-12T17:02:45.895Z,14.50
2023-01-12T17:07:49.268Z,14.32
2023-01-12T17:12:58.340Z,19.92
2023-01-12T17:18:03.461Z,16.63
2023-01-12T17:23:06.051Z,19.60
2023-01-12T17:28:08.656Z,19.55
2023-01-12T17:33:10.994Z,26.45
2023-01-12T17:38:13.290Z,27.40
2023-01-12T17:43:15.485Z,28.58
2023-01-12T17:48:20.646Z,26.98
2023-01-12T17:53:22.992Z,27.95
2023-01-12T17:58:25.119Z,27.20
2023-01-12T18:03:27.310Z,30.17
2023-01-12T18:08:29.593Z,35.95
2023-01-12T18:13:32.235Z,19.17
2023-01-12T18:18:34.608Z,20.92
2023-01-12T18:23:39.149Z,22.15
2023-01-12T18:28:42.366Z,19.90
2023-01-12T18:33:45.827Z,18.73
2023-01-12T18:38:49.896Z,18.70
2023-01-12T18:43:52.504Z,20.20
2023-01-12T18:48:54.756Z,20.08
2023-01-12T18:53:57.244Z,19.38
2023-01-12T18:58:59.362Z,17.73
2023-01-12T19:04:03.044Z,16.90
2023-01-12T19:09:23.837Z,18.23
2023-01-12T19:14:44.434Z,17.63
2023-01-12T19:25:07.396Z,19.27
2023-01-12T19:30:10.650Z,19.52
2023-01-12T19:35:12.933Z,18.60
2023-01-12T19:40:47.721Z,18.92
2023-01-12T19:45:58.881Z,22.40
2023-01-12T19:51:09.495Z,16.85
2023-01-12T19:56:13.522Z,18.05
2023-01-12T20:01:23.460Z,17.70
2023-01-12T20:06:25.684Z,16.65
2023-01-12T20:11:28.048Z,14.02
2023-01-12T20:16:30.364Z,13.20
2023-01-12T20:21:32.511Z,13.27
2023-01-12T20:26:34.599Z,12.15
2023-01-12T20:31:36.807Z,21.83
2023-01-12T20:36:40.190Z,18.40
2023-01-12T20:41:43.545Z,13.30
2023-01-12T20:46:46.202Z,12.73
2023-01-12T20:51:49.853Z,25.67
2023-01-12T20:56:52.053Z,16.90
2023-01-12T21:01:54.192Z,11.82
2023-01-12T21:06:57.135Z,12.23
2023-01-12T21:11:59.416Z,9.63
2023-01-12T21:17:02.794Z,10.45
2023-01-12T21:22:04.911Z,14.20
2023-01-12T21:27:07.526Z,11.18
2023-01-12T21:32:09.697Z,11.55
2023-01-12T21:37:12.209Z,13.30
2023-01-12T21:42:33.509Z,13.18
2023-01-12T21:47:35.961Z,13.88
2023-01-12T21:52:38.192Z,17.10
2023-01-12T21:57:42.086Z,14.52
2023-01-12T22:02:44.322Z,15.73
2023-01-12T22:07:48.216Z,13.57
2023-01-12T22:12:54.366Z,13.23
2023-01-12T22:17:56.737Z,11.88
2023-01-12T22:22:58.897Z,10.65
2023-01-12T22:28:01.155Z,9.80
2023-01-12T22:33:03.291Z,10.88
2023-01-12T22:38:06.465Z,12.60
2023-01-12T22:43:28.528Z,12.25
2023-01-12T22:48:30.606Z,26.73
2023-01-12T22:53:33.163Z,15.73
2023-01-12T22:58:38.206Z,15.63
2023-01-12T23:03:40.348Z,15.45
2023-01-12T23:08:44.919Z,12.48
2023-01-12T23:13:47.342Z,12.88
2023-01-12T23:18:50.629Z,13.32
2023-01-12T23:23:54.791Z,11.63
2023-01-12T23:29:00.587Z,11.13
2023-01-12T23:34:02.910Z,11.38
2023-01-12T23:39:06.441Z,11.63
2023-01-12T23:44:10.232Z,10.90
2023-01-12T23:49:12.301Z,12.25
2023-01-12T23:54:17.613Z,15.90
2023-01-12T23:59:19.946Z,15.68
